Glandorf, Ohio
Current Conditions -  °F | °C
As of 4:53 AM on Saturday 29 Nov 2014 (Local Time) from KFDY Reporting Station
Overcast Overcast  
Wind Chill: 23°   Ceiling: 12000
Heat Index: 32°   Visibility: 10mi
Dew Point: 22°   Wind: 12mph
Humidity: 66%   Direction: 150°SSE
Pressure: 29.98"   Gusts: NA
Location:  41.03°N, 84.08°W
Report Text: KFDY 290953Z AUTO 15010KT 10SM OVC120 00/M06 A2998 RMK AO2 SLP158 T00001056
Loading
Personal Weather Stations






























Interactive Weather Map New forecast layout! Learn more

10-Day Weather Forecast

Advertisements
Track Severe Weather on mobile